Time;durP1;ratioP1;P1;durP2;ratioP2;P2;SDS_P1;SDS_P2;PMS_P1;PMS_P2;Temp;Humidity;BMP_temperature;BMP_pressure;BME280_temperature;BME280_humidity;BME280_pressure;Samples;Min_cycle;Max_cycle;Signal;HPM_P1;HPM_P2
2023/05/07 00:02:07;;;;;;;4.30;2.90;;;14.10;99.90;;;;;;5014142;28;20321;-78
2023/05/07 00:04:36;;;;;;;3.57;2.90;;;14.30;99.90;;;;;;5029352;28;20176;-77
2023/05/07 00:07:02;;;;;;;4.87;3.30;;;14.20;99.90;;;;;;5027735;28;20200;-78
2023/05/07 00:09:28;;;;;;;3.73;3.03;;;14.20;99.90;;;;;;5027825;28;20204;-77
2023/05/07 00:11:53;;;;;;;4.60;2.73;;;14.20;99.90;;;;;;5017906;28;20190;-77
2023/05/07 00:14:19;;;;;;;3.30;2.37;;;14.10;99.90;;;;;;5028140;28;20290;-77
2023/05/07 00:16:45;;;;;;;5.87;2.60;;;14.20;99.90;;;;;;5024827;28;20276;-77
2023/05/07 00:19:10;;;;;;;4.53;3.20;;;14.20;99.90;;;;;;5009991;28;20681;-77
2023/05/07 00:21:36;;;;;;;2.97;2.73;;;14.20;99.90;;;;;;5029976;28;20176;-77
2023/05/07 00:24:01;;;;;;;4.87;2.67;;;14.10;99.90;;;;;;5029863;28;20229;-77
2023/05/07 00:26:27;;;;;;;3.43;2.90;;;14.20;99.90;;;;;;5010036;28;20735;-77
2023/05/07 00:28:52;;;;;;;4.30;3.03;;;14.10;99.90;;;;;;5024452;28;20249;-78
2023/05/07 00:31:18;;;;;;;3.10;2.80;;;14.10;99.90;;;;;;5028752;28;20370;-76
2023/05/07 00:33:43;;;;;;;6.63;3.33;;;14.10;99.90;;;;;;5029923;28;20179;-77
2023/05/07 00:36:09;;;;;;;4.47;3.60;;;14.10;99.90;;;;;;5013160;28;20199;-79
2023/05/07 00:38:35;;;;;;;6.30;3.43;;;14.00;99.90;;;;;;5022588;28;20200;-77
2023/05/07 00:41:02;;;;;;;4.87;3.30;;;14.10;99.90;;;;;;5028990;28;20674;-77
2023/05/07 00:43:27;;;;;;;8.27;3.10;;;14.00;99.90;;;;;;5022732;28;20185;-77
2023/05/07 00:45:53;;;;;;;5.53;3.20;;;14.00;99.90;;;;;;5017199;28;20215;-77
2023/05/07 00:48:18;;;;;;;3.40;3.10;;;14.00;99.90;;;;;;5014584;28;20197;-77
2023/05/07 00:50:45;;;;;;;4.63;3.07;;;14.10;99.90;;;;;;5022025;28;20237;-77
2023/05/07 00:53:11;;;;;;;4.20;3.40;;;14.00;99.90;;;;;;5027251;28;20183;-77
2023/05/07 00:55:37;;;;;;;5.50;2.97;;;13.90;99.90;;;;;;5013685;28;20647;-77
2023/05/07 00:58:03;;;;;;;7.30;2.90;;;13.90;99.90;;;;;;5028118;28;20207;-77
2023/05/07 01:00:28;;;;;;;3.30;3.00;;;13.80;99.90;;;;;;5017699;28;20176;-77
2023/05/07 01:02:54;;;;;;;3.67;2.80;;;13.80;99.90;;;;;;5010121;28;20196;-78
2023/05/07 01:05:21;;;;;;;3.47;3.17;;;13.80;99.90;;;;;;5015675;28;20230;-77
2023/05/07 01:07:47;;;;;;;4.13;2.70;;;13.70;99.90;;;;;;5009675;28;20212;-77
2023/05/07 01:10:13;;;;;;;6.97;3.00;;;13.60;99.90;;;;;;5065681;28;20272;-77
2023/05/07 01:12:40;;;;;;;3.57;3.27;;;13.60;99.90;;;;;;5023838;28;20291;-77
2023/05/07 01:15:07;;;;;;;4.53;3.03;;;13.60;99.90;;;;;;5018804;28;20588;-77
2023/05/07 01:17:38;;;;;;;5.47;3.23;;;13.60;99.90;;;;;;5021882;28;20204;-77
2023/05/07 01:20:05;;;;;;;4.93;2.67;;;13.60;99.90;;;;;;5027001;28;20198;-77
2023/05/07 01:22:38;;;;;;;6.33;3.20;;;13.60;99.90;;;;;;5029123;28;20582;-77
2023/05/07 01:25:05;;;;;;;4.43;2.83;;;13.60;99.90;;;;;;5026938;28;20216;-77
2023/05/07 01:27:30;;;;;;;6.43;2.80;;;13.50;99.90;;;;;;5024492;28;20663;-77
2023/05/07 01:29:56;;;;;;;3.50;3.20;;;13.50;99.90;;;;;;5015238;28;20184;-76
2023/05/07 01:32:35;;;;;;;4.23;3.10;;;13.50;99.90;;;;;;5026670;28;20173;-77
2023/05/07 01:35:04;;;;;;;5.43;3.73;;;13.50;99.90;;;;;;5027015;28;20195;-77
2023/05/07 01:37:30;;;;;;;4.37;3.93;;;13.50;99.90;;;;;;5028892;28;20204;-77
2023/05/07 01:39:57;;;;;;;6.07;4.00;;;13.50;99.90;;;;;;5026609;28;20624;-77
2023/05/07 01:42:22;;;;;;;3.93;3.53;;;13.50;99.90;;;;;;5030559;28;20211;-76
2023/05/07 01:44:48;;;;;;;6.10;3.60;;;13.50;99.90;;;;;;5030365;28;20640;-77
2023/05/07 01:47:14;;;;;;;3.93;3.30;;;13.50;99.90;;;;;;5024923;28;20342;-77
2023/05/07 01:49:41;;;;;;;4.30;3.63;;;13.50;99.90;;;;;;5022219;28;20332;-77
2023/05/07 01:52:07;;;;;;;6.33;3.50;;;13.40;99.90;;;;;;5030595;28;20648;-77
2023/05/07 01:54:33;;;;;;;4.33;3.70;;;13.40;99.90;;;;;;5031470;28;20187;-77
2023/05/07 01:56:59;;;;;;;4.13;3.73;;;13.40;99.90;;;;;;5030877;28;20643;-77
2023/05/07 01:59:25;;;;;;;3.80;3.43;;;13.40;99.90;;;;;;5029859;28;20184;-77
2023/05/07 02:01:51;;;;;;;4.17;3.77;;;13.40;99.90;;;;;;5016037;28;20352;-77
2023/05/07 02:04:17;;;;;;;4.93;3.40;;;13.40;99.90;;;;;;5016708;28;20288;-77
2023/05/07 02:06:42;;;;;;;6.43;3.83;;;13.40;99.90;;;;;;5011054;28;20208;-77
2023/05/07 02:09:08;;;;;;;5.77;4.07;;;13.40;99.90;;;;;;5011347;28;20592;-79
2023/05/07 02:11:34;;;;;;;6.50;3.80;;;13.40;99.90;;;;;;5030515;28;20585;-77
2023/05/07 02:14:00;;;;;;;6.63;4.33;;;13.30;99.90;;;;;;5030717;28;20200;-77
2023/05/07 02:16:25;;;;;;;8.60;3.87;;;13.40;99.90;;;;;;5029559;28;20195;-77
2023/05/07 02:18:51;;;;;;;4.70;4.20;;;13.30;99.90;;;;;;5030554;28;20207;-77
2023/05/07 02:21:16;;;;;;;6.97;3.87;;;13.30;99.90;;;;;;5029028;28;20176;-77
2023/05/07 02:23:42;;;;;;;5.47;3.93;;;13.30;99.90;;;;;;5031925;28;20180;-77
2023/05/07 02:26:07;;;;;;;7.67;4.13;;;13.30;99.90;;;;;;5014981;28;20220;-77
2023/05/07 02:28:35;;;;;;;6.70;4.17;;;13.30;99.90;;;;;;5031659;28;20200;-77
2023/05/07 02:31:02;;;;;;;4.60;3.97;;;13.30;99.90;;;;;;5015699;28;20272;-77
2023/05/07 02:33:28;;;;;;;5.13;4.30;;;13.30;99.90;;;;;;5012060;28;20257;-76
2023/05/07 02:35:53;;;;;;;5.63;3.73;;;13.20;99.90;;;;;;5016911;28;20701;-77
2023/05/07 02:38:19;;;;;;;5.53;3.73;;;13.20;99.90;;;;;;5010461;28;20197;-77
2023/05/07 02:40:44;;;;;;;4.80;3.30;;;13.20;99.90;;;;;;5023299;28;20199;-77
2023/05/07 02:43:10;;;;;;;4.90;3.70;;;13.20;99.90;;;;;;5013032;28;20233;-77
2023/05/07 02:45:38;;;;;;;5.20;4.00;;;13.10;99.90;;;;;;5023267;28;20288;-76
2023/05/07 02:48:05;;;;;;;4.73;3.37;;;13.10;99.90;;;;;;5031473;28;20200;-77
2023/05/07 02:50:32;;;;;;;4.83;3.80;;;13.10;99.90;;;;;;5027005;28;20188;-77
2023/05/07 02:52:58;;;;;;;10.17;4.07;;;13.10;99.90;;;;;;5023691;28;20180;-77
2023/05/07 02:55:23;;;;;;;6.43;3.67;;;13.10;99.90;;;;;;5026537;28;20181;-77
2023/05/07 02:57:49;;;;;;;3.73;3.43;;;13.00;99.90;;;;;;5011480;28;20205;-77
2023/05/07 03:00:17;;;;;;;4.50;4.10;;;13.00;99.90;;;;;;5012421;28;20187;-77
2023/05/07 03:02:43;;;;;;;4.30;3.90;;;13.00;99.90;;;;;;5020078;28;20543;-77
2023/05/07 03:05:09;;;;;;;4.10;3.60;;;13.00;99.90;;;;;;5037084;28;20180;-77
2023/05/07 03:07:35;;;;;;;4.27;3.87;;;13.00;99.90;;;;;;5029087;28;20212;-77
2023/05/07 03:10:01;;;;;;;4.47;4.07;;;13.00;99.90;;;;;;5030393;28;20195;-77
2023/05/07 03:12:27;;;;;;;4.63;4.20;;;13.00;99.90;;;;;;5029068;28;20204;-77
2023/05/07 03:14:52;;;;;;;6.67;3.93;;;12.90;99.90;;;;;;5028866;28;20271;-77
2023/05/07 03:17:18;;;;;;;4.80;3.60;;;12.90;99.90;;;;;;5030951;28;20216;-76
2023/05/07 03:19:43;;;;;;;4.67;3.80;;;12.90;99.90;;;;;;5030355;28;20192;-76
2023/05/07 03:22:09;;;;;;;4.40;3.50;;;12.90;99.90;;;;;;5029910;28;20533;-77
2023/05/07 03:24:34;;;;;;;8.30;3.93;;;12.90;99.90;;;;;;5028868;28;20188;-77
2023/05/07 03:27:00;;;;;;;8.77;3.93;;;12.90;99.90;;;;;;5025448;28;20215;-77
2023/05/07 03:29:26;;;;;;;6.97;3.97;;;12.90;99.90;;;;;;5013791;28;20283;-77
2023/05/07 03:31:52;;;;;;;5.80;3.53;;;12.90;99.90;;;;;;5028107;28;20275;-77
2023/05/07 03:34:21;;;;;;;5.50;4.10;;;12.90;99.90;;;;;;5028810;28;20189;-77
2023/05/07 03:36:50;;;;;;;4.10;3.33;;;12.90;99.90;;;;;;5022926;28;20238;-77
2023/05/07 03:39:16;;;;;;;6.67;3.80;;;12.90;99.90;;;;;;5017821;28;20208;-77
2023/05/07 03:41:41;;;;;;;7.00;4.20;;;12.90;99.90;;;;;;5024559;28;20238;-77
2023/05/07 03:44:07;;;;;;;4.03;3.30;;;12.90;99.90;;;;;;5028708;28;20192;-78
2023/05/07 03:46:33;;;;;;;4.80;3.97;;;12.80;99.90;;;;;;5014519;28;20663;-77
2023/05/07 03:48:58;;;;;;;4.73;4.20;;;12.80;99.90;;;;;;5030499;28;20334;-77
2023/05/07 03:51:25;;;;;;;6.30;3.90;;;12.80;99.90;;;;;;5027353;28;20195;-77
2023/05/07 03:53:52;;;;;;;5.83;3.87;;;12.80;99.90;;;;;;5028521;28;20188;-77
2023/05/07 03:56:18;;;;;;;4.33;3.93;;;12.80;99.90;;;;;;5021712;28;20184;-77
2023/05/07 03:58:44;;;;;;;5.27;3.73;;;12.80;99.90;;;;;;5009208;28;20659;-77
2023/05/07 04:01:10;;;;;;;8.03;3.83;;;12.70;99.90;;;;;;5021960;28;20259;-80
2023/05/07 04:03:35;;;;;;;4.53;4.00;;;12.70;99.90;;;;;;5038731;28;20229;-77
2023/05/07 04:06:01;;;;;;;6.27;3.80;;;12.70;99.90;;;;;;5028782;28;20207;-77
2023/05/07 04:08:26;;;;;;;9.73;3.70;;;12.70;99.90;;;;;;5027529;28;20284;-77
2023/05/07 04:10:56;;;;;;;4.83;3.60;;;12.70;99.90;;;;;;5030011;28;20325;-77
2023/05/07 04:13:21;;;;;;;4.17;3.77;;;12.70;99.90;;;;;;5019515;28;20612;-77
2023/05/07 04:15:48;;;;;;;5.93;4.10;;;12.80;99.90;;;;;;5023282;28;20191;-77
2023/05/07 04:18:14;;;;;;;4.17;3.57;;;12.80;99.90;;;;;;5029158;28;20697;-77
2023/05/07 04:20:40;;;;;;;5.03;3.50;;;12.70;99.90;;;;;;5015077;28;20180;-77
2023/05/07 04:23:05;;;;;;;4.47;4.07;;;12.80;99.90;;;;;;5027958;28;20204;-77
2023/05/07 04:25:31;;;;;;;5.47;3.70;;;12.70;99.90;;;;;;5029122;28;20655;-77
2023/05/07 04:27:56;;;;;;;12.83;4.37;;;12.80;99.90;;;;;;5029102;28;20196;-77
2023/05/07 04:30:22;;;;;;;4.37;3.60;;;12.80;99.90;;;;;;5027912;28;20263;-76
2023/05/07 04:32:48;;;;;;;6.17;4.03;;;12.80;99.90;;;;;;5028602;28;20540;-77
2023/05/07 04:35:14;;;;;;;4.47;4.03;;;12.80;99.90;;;;;;5027874;28;20191;-77
2023/05/07 04:37:39;;;;;;;8.50;4.00;;;12.80;99.90;;;;;;5029716;28;20210;-76
2023/05/07 04:40:06;;;;;;;4.60;3.97;;;12.80;99.90;;;;;;5020672;28;20710;-76
2023/05/07 04:42:32;;;;;;;4.93;4.00;;;12.80;99.90;;;;;;5026044;28;20233;-76
2023/05/07 04:44:57;;;;;;;6.60;3.90;;;12.80;99.90;;;;;;5029341;28;20196;-77
2023/05/07 04:47:23;;;;;;;4.50;3.83;;;12.80;99.90;;;;;;5028726;28;20307;-77
2023/05/07 04:49:48;;;;;;;5.70;4.30;;;12.80;99.90;;;;;;5029147;28;20610;-77
2023/05/07 04:52:15;;;;;;;4.17;3.77;;;12.90;99.90;;;;;;5026657;28;20173;-76
2023/05/07 04:54:40;;;;;;;4.00;3.60;;;12.90;99.90;;;;;;5028956;28;20240;-77
2023/05/07 04:57:06;;;;;;;4.70;3.60;;;12.90;99.90;;;;;;5027518;28;20635;-77
2023/05/07 04:59:32;;;;;;;6.03;4.27;;;13.00;99.90;;;;;;5024798;28;20260;-78
2023/05/07 05:01:58;;;;;;;5.13;3.97;;;12.90;99.90;;;;;;5014279;28;20656;-77
2023/05/07 05:04:23;;;;;;;8.00;4.20;;;13.00;99.90;;;;;;5010107;28;20223;-77
2023/05/07 05:06:49;;;;;;;4.57;4.13;;;13.00;99.90;;;;;;5008365;28;20243;-78
2023/05/07 05:09:15;;;;;;;4.57;3.87;;;13.00;99.90;;;;;;5022135;28;20676;-77
2023/05/07 05:11:41;;;;;;;4.83;4.13;;;13.00;99.90;;;;;;5023340;28;21471;-78
2023/05/07 05:14:07;;;;;;;4.63;4.20;;;13.00;99.90;;;;;;5016566;28;20185;-78
2023/05/07 05:16:33;;;;;;;6.37;4.27;;;13.00;99.90;;;;;;5015880;28;20184;-77
2023/05/07 05:18:59;;;;;;;4.23;3.80;;;13.10;99.90;;;;;;5031789;28;20200;-77
2023/05/07 05:21:24;;;;;;;6.20;4.43;;;13.10;99.90;;;;;;5027705;28;20727;-78
2023/05/07 05:23:50;;;;;;;8.93;4.03;;;13.10;99.90;;;;;;5029958;28;20329;-77
2023/05/07 05:26:16;;;;;;;7.43;3.90;;;13.10;99.90;;;;;;5031226;28;20287;-77
2023/05/07 05:28:41;;;;;;;4.30;3.90;;;13.20;99.90;;;;;;5032863;28;20301;-78
2023/05/07 05:31:07;;;;;;;4.27;3.87;;;13.20;99.90;;;;;;5013723;28;20310;-79
2023/05/07 05:33:32;;;;;;;4.37;3.87;;;13.30;99.90;;;;;;5025937;28;20385;-77
2023/05/07 05:35:58;;;;;;;4.77;3.80;;;13.30;99.90;;;;;;5030551;28;20188;-77
2023/05/07 05:38:23;;;;;;;8.33;4.20;;;13.30;99.90;;;;;;5031630;28;20706;-77
2023/05/07 05:40:49;;;;;;;5.63;4.27;;;13.30;99.90;;;;;;5031793;28;20184;-79
2023/05/07 05:43:14;;;;;;;4.27;3.87;;;13.40;99.90;;;;;;5032247;28;20566;-78
2023/05/07 05:45:40;;;;;;;6.13;3.97;;;13.40;99.90;;;;;;5028964;28;20177;-78
2023/05/07 05:48:05;;;;;;;4.43;3.77;;;13.50;99.90;;;;;;5030957;28;20200;-77
2023/05/07 05:50:31;;;;;;;7.13;4.30;;;13.50;99.90;;;;;;5032313;28;20180;-79
2023/05/07 05:52:57;;;;;;;6.97;4.37;;;13.50;99.90;;;;;;5033059;28;20192;-78
2023/05/07 05:55:23;;;;;;;8.63;5.10;;;13.70;99.90;;;;;;5032433;28;20683;-78
2023/05/07 05:57:49;;;;;;;4.87;4.23;;;13.70;99.90;;;;;;5035841;28;20192;-78
2023/05/07 06:00:16;;;;;;;7.77;4.13;;;13.80;99.90;;;;;;5024803;28;20567;-78
2023/05/07 06:02:42;;;;;;;5.67;5.10;;;13.80;99.90;;;;;;5016976;28;20193;-78
2023/05/07 06:05:08;;;;;;;5.27;4.60;;;13.90;99.90;;;;;;5030107;28;20192;-78
2023/05/07 06:07:34;;;;;;;8.13;4.63;;;14.00;99.90;;;;;;5031956;28;20255;-77
2023/05/07 06:10:00;;;;;;;6.87;5.20;;;14.10;99.90;;;;;;5032961;28;20173;-78
2023/05/07 06:12:26;;;;;;;6.93;4.83;;;14.10;99.90;;;;;;5040071;28;20191;-79
2023/05/07 06:14:52;;;;;;;14.20;5.27;;;14.20;99.90;;;;;;5041307;28;20176;-80
2023/05/07 06:17:18;;;;;;;11.30;5.60;;;14.30;99.90;;;;;;5033312;28;20180;-78
2023/05/07 06:19:43;;;;;;;10.60;5.53;;;14.40;99.90;;;;;;5032906;28;20204;-76
2023/05/07 06:22:09;;;;;;;6.57;4.60;;;14.40;99.90;;;;;;5030504;28;20222;-77
2023/05/07 06:24:35;;;;;;;6.43;4.90;;;14.50;99.90;;;;;;5031946;28;20540;-77
2023/05/07 06:27:00;;;;;;;7.73;4.60;;;14.50;99.90;;;;;;5031378;28;20230;-77
2023/05/07 06:29:26;;;;;;;5.77;4.40;;;14.60;99.90;;;;;;5031518;28;20207;-77
2023/05/07 06:31:54;;;;;;;4.50;3.87;;;14.60;99.90;;;;;;5031570;28;20691;-77
2023/05/07 06:34:20;;;;;;;5.67;4.00;;;14.60;99.90;;;;;;5036429;28;20271;-79
2023/05/07 06:36:45;;;;;;;7.63;4.10;;;14.70;99.90;;;;;;5041386;28;20176;-79
2023/05/07 06:39:11;;;;;;;4.20;3.80;;;14.70;99.90;;;;;;5038635;28;20613;-77
2023/05/07 06:41:36;;;;;;;4.30;3.70;;;14.80;99.90;;;;;;5031528;28;20711;-78
2023/05/07 06:44:02;;;;;;;7.37;4.57;;;14.90;99.90;;;;;;5034731;28;20173;-79
2023/05/07 06:46:28;;;;;;;6.27;3.87;;;14.90;99.90;;;;;;5036469;28;20577;-79
2023/05/07 06:48:54;;;;;;;7.83;3.93;;;15.00;99.90;;;;;;5036468;28;20188;-78
2023/05/07 06:51:19;;;;;;;6.57;3.90;;;15.00;99.90;;;;;;5031764;28;20547;-78
2023/05/07 06:53:45;;;;;;;5.40;4.07;;;15.10;99.90;;;;;;5032121;28;20176;-77
2023/05/07 06:56:10;;;;;;;3.47;3.10;;;15.20;99.90;;;;;;5032028;28;20236;-78
2023/05/07 06:58:37;;;;;;;7.37;3.40;;;15.30;99.90;;;;;;5036544;28;20606;-78
2023/05/07 07:01:03;;;;;;;6.17;3.17;;;15.20;99.90;;;;;;5037134;28;20198;-78
2023/05/07 07:03:28;;;;;;;3.90;3.47;;;15.40;99.90;;;;;;5036127;28;20644;-78
2023/05/07 07:05:54;;;;;;;10.60;3.17;;;15.40;99.90;;;;;;5038694;28;20234;-77
2023/05/07 07:08:21;;;;;;;3.70;2.90;;;15.40;99.90;;;;;;5037914;28;20192;-77
2023/05/07 07:10:47;;;;;;;5.30;3.03;;;15.50;99.90;;;;;;5043863;28;20169;-78
2023/05/07 07:13:13;;;;;;;5.90;2.90;;;15.60;99.90;;;;;;5040683;28;20184;-78
2023/05/07 07:15:39;;;;;;;7.30;2.67;;;15.60;99.90;;;;;;5041469;28;20190;-78
2023/05/07 07:18:05;;;;;;;5.47;2.37;;;15.70;99.90;;;;;;5039290;28;20275;-78
2023/05/07 07:20:31;;;;;;;3.70;2.60;;;15.70;99.90;;;;;;5035949;28;20207;-78
2023/05/07 07:22:57;;;;;;;2.63;2.43;;;15.70;99.90;;;;;;5036061;28;20680;-78
2023/05/07 07:25:23;;;;;;;5.43;2.73;;;15.80;99.90;;;;;;5033793;28;20181;-78
2023/05/07 07:27:49;;;;;;;7.27;2.80;;;15.80;99.90;;;;;;5021513;28;20269;-79
2023/05/07 07:30:15;;;;;;;2.40;1.80;;;15.80;99.90;;;;;;5020382;28;20198;-78
2023/05/07 07:32:40;;;;;;;3.87;2.43;;;15.90;99.90;;;;;;5021151;28;20208;-79
2023/05/07 07:35:06;;;;;;;3.80;2.53;;;15.90;99.90;;;;;;5019276;28;20545;-79
2023/05/07 07:37:32;;;;;;;6.07;2.87;;;16.00;99.90;;;;;;5018885;28;20656;-78
2023/05/07 07:39:57;;;;;;;2.50;2.30;;;16.10;99.90;;;;;;5019013;28;20216;-77
2023/05/07 07:42:23;;;;;;;3.20;2.00;;;16.20;99.90;;;;;;5017331;28;20196;-78
2023/05/07 07:44:48;;;;;;;3.67;2.20;;;16.20;99.90;;;;;;5018563;28;20629;-78
2023/05/07 07:47:14;;;;;;;5.17;2.20;;;16.30;99.90;;;;;;5018508;28;20208;-78
2023/05/07 07:49:40;;;;;;;4.83;2.23;;;16.40;99.90;;;;;;5014930;28;20367;-78
2023/05/07 07:52:05;;;;;;;2.93;1.90;;;16.50;99.90;;;;;;5016802;28;20179;-78
2023/05/07 07:54:31;;;;;;;3.70;2.27;;;16.60;99.90;;;;;;5016090;28;20194;-78
2023/05/07 07:56:57;;;;;;;4.33;2.00;;;16.70;99.90;;;;;;5014070;28;20259;-76
2023/05/07 07:59:23;;;;;;;4.40;1.80;;;16.80;99.90;;;;;;5019038;28;20698;-80
2023/05/07 08:01:50;;;;;;;8.17;2.37;;;16.80;99.90;;;;;;5019513;28;20181;-79
2023/05/07 08:04:15;;;;;;;3.47;1.80;;;17.00;99.90;;;;;;5018880;28;20215;-78
2023/05/07 08:06:42;;;;;;;2.73;1.60;;;17.10;99.90;;;;;;5018942;28;20208;-79
2023/05/07 08:09:08;;;;;;;4.10;1.90;;;17.10;99.90;;;;;;5019917;28;20189;-80
2023/05/07 08:11:34;;;;;;;3.40;2.90;;;17.20;99.90;;;;;;5018402;28;20236;-79
2023/05/07 08:14:00;;;;;;;5.40;2.03;;;17.30;99.90;;;;;;5016351;28;20211;-78
2023/05/07 08:16:25;;;;;;;4.10;1.73;;;17.40;99.90;;;;;;5015736;28;20232;-78
2023/05/07 08:18:51;;;;;;;5.40;2.00;;;17.60;99.90;;;;;;5015364;28;20196;-78
2023/05/07 08:21:17;;;;;;;3.43;1.93;;;17.70;99.90;;;;;;5015188;28;20181;-78
2023/05/07 08:23:42;;;;;;;5.00;1.80;;;17.70;99.90;;;;;;5016809;28;20184;-78
2023/05/07 08:26:08;;;;;;;3.73;1.87;;;17.80;99.90;;;;;;5014676;28;20235;-79
2023/05/07 08:28:34;;;;;;;2.30;1.63;;;17.80;99.90;;;;;;5015776;28;20193;-79
2023/05/07 08:31:00;;;;;;;1.90;1.67;;;17.90;99.90;;;;;;5015928;28;20636;-79
2023/05/07 08:33:26;;;;;;;5.10;1.87;;;18.00;99.90;;;;;;5015709;28;20222;-79
2023/05/07 08:35:52;;;;;;;6.90;2.10;;;18.00;99.90;;;;;;5015830;28;20165;-78
2023/05/07 08:38:17;;;;;;;2.70;1.70;;;18.10;99.90;;;;;;5017395;28;20188;-78
2023/05/07 08:40:43;;;;;;;2.13;1.70;;;18.20;99.90;;;;;;5016880;28;20196;-78
2023/05/07 08:43:12;;;;;;;2.67;1.70;;;18.30;99.90;;;;;;5015834;28;20572;-78
2023/05/07 08:45:40;;;;;;;8.20;1.80;;;18.40;99.90;;;;;;5017346;28;20184;-78
2023/05/07 08:48:10;;;;;;;3.10;1.70;;;18.40;99.90;;;;;;5017873;28;20207;-78
2023/05/07 08:50:36;;;;;;;2.37;1.80;;;18.50;99.90;;;;;;5016254;28;20694;-79
2023/05/07 08:53:05;;;;;;;4.13;1.57;;;18.50;99.90;;;;;;5015755;28;20234;-78
2023/05/07 08:55:31;;;;;;;3.63;1.57;;;18.50;99.90;;;;;;5016939;28;20616;-78
2023/05/07 08:57:57;;;;;;;4.23;1.47;;;18.50;99.90;;;;;;5018320;28;20623;-79
2023/05/07 09:00:22;;;;;;;3.87;1.43;;;18.60;99.90;;;;;;5019151;28;20181;-78
2023/05/07 09:02:48;;;;;;;2.37;1.70;;;18.70;99.90;;;;;;5019207;28;20260;-79
2023/05/07 09:05:13;;;;;;;4.93;2.07;;;18.70;99.90;;;;;;5017741;28;20650;-79
2023/05/07 09:07:39;;;;;;;4.07;1.67;;;18.70;99.90;;;;;;5017938;28;20239;-78
2023/05/07 09:10:06;;;;;;;3.63;1.47;;;18.90;99.90;;;;;;5018021;28;20493;-78
2023/05/07 09:12:32;;;;;;;2.87;1.60;;;18.90;99.90;;;;;;5019374;28;20185;-79
2023/05/07 09:14:59;;;;;;;5.83;1.80;;;18.90;99.90;;;;;;5017923;28;20181;-78
2023/05/07 09:17:25;;;;;;;2.53;1.60;;;18.90;99.90;;;;;;5019639;28;20186;-78
2023/05/07 09:19:50;;;;;;;4.80;1.50;;;18.90;99.90;;;;;;5019893;28;20177;-78
2023/05/07 09:22:16;;;;;;;5.63;1.60;;;19.00;99.90;;;;;;5019821;28;20659;-78
2023/05/07 09:24:50;;;;;;;7.73;1.43;;;19.10;99.90;;;;;;5019767;28;20184;-78
2023/05/07 09:27:17;;;;;;;6.17;1.70;;;19.20;99.90;;;;;;5018203;28;20197;-78
2023/05/07 09:29:43;;;;;;;3.80;1.70;;;19.20;99.90;;;;;;5016859;28;20269;-78
2023/05/07 09:32:10;;;;;;;2.23;1.60;;;19.30;99.90;;;;;;5018661;28;20192;-79
2023/05/07 09:34:36;;;;;;;1.50;1.17;;;19.30;99.90;;;;;;5019288;28;20169;-79
2023/05/07 09:37:02;;;;;;;5.73;1.33;;;19.50;99.90;;;;;;5019781;28;20263;-79
2023/05/07 09:39:42;;;;;;;3.53;1.80;;;19.60;99.90;;;;;;5018765;28;20713;-79
2023/05/07 09:42:07;;;;;;;2.30;1.30;;;19.70;99.90;;;;;;5018259;28;20512;-78
2023/05/07 09:44:34;;;;;;;1.90;1.40;;;19.80;1.00;;;;;;5018354;28;20177;-78
2023/05/07 09:47:03;;;;;;;1.93;1.30;;;20.00;1.00;;;;;;5017324;28;20209;-78
2023/05/07 09:49:32;;;;;;;3.33;1.30;;;20.10;92.70;;;;;;5019052;28;20193;-78
2023/05/07 09:52:00;;;;;;;2.50;1.10;;;20.10;1.00;;;;;;5020793;28;20652;-78
2023/05/07 09:54:27;;;;;;;5.80;1.20;;;20.10;1.00;;;;;;5017597;28;20177;-78
2023/05/07 09:56:53;;;;;;;1.30;1.20;;;20.10;1.00;;;;;;5016014;28;20674;-79
2023/05/07 09:59:21;;;;;;;4.63;1.47;;;20.30;99.90;;;;;;5018534;28;20200;-79
2023/05/07 10:01:46;;;;;;;3.03;1.33;;;20.10;99.90;;;;;;5020643;28;20215;-78
2023/05/07 10:04:12;;;;;;;2.07;1.20;;;20.20;99.90;;;;;;5021212;28;20176;-78
2023/05/07 10:06:38;;;;;;;2.33;1.30;;;20.20;99.90;;;;;;5021918;28;20357;-79
2023/05/07 10:09:05;;;;;;;2.73;1.30;;;20.20;1.00;;;;;;5021936;28;20196;-79
2023/05/07 10:11:33;;;;;;;1.53;1.10;;;20.30;99.90;;;;;;5020682;28;20191;-79
2023/05/07 10:14:01;;;;;;;2.83;1.30;;;20.40;99.90;;;;;;5021865;28;20203;-78
2023/05/07 10:16:28;;;;;;;1.67;1.20;;;20.40;99.90;;;;;;5019871;28;20181;-79
2023/05/07 10:18:57;;;;;;;7.50;1.43;;;20.50;1.00;;;;;;5021975;28;20259;-81
2023/05/07 10:21:23;;;;;;;3.93;1.20;;;20.70;1.00;;;;;;5015332;28;20177;-78
2023/05/07 10:24:21;;;;;;;3.23;1.40;;;20.60;79.00;;;;;;5016271;28;20181;-77
2023/05/07 10:26:50;;;;;;;2.23;1.43;;;20.70;1.00;;;;;;5018343;28;20201;-80
2023/05/07 10:29:50;;;;;;;2.07;0.90;;;20.60;99.90;;;;;;5021700;28;20204;-80
2023/05/07 10:32:43;;;;;;;3.77;1.20;;;20.70;27.40;;;;;;5021552;28;20671;-80
2023/05/07 10:35:22;;;;;;;1.40;0.83;;;20.80;1.00;;;;;;5023767;28;20180;-80
2023/05/07 10:37:49;;;;;;;2.87;1.20;;;20.90;99.90;;;;;;5023942;28;20207;-80
2023/05/07 10:40:14;;;;;;;3.30;1.10;;;20.90;1.00;;;;;;5024181;28;20213;-80
2023/05/07 10:42:57;;;;;;;1.37;1.10;;;21.10;99.90;;;;;;5024984;28;20184;-80
2023/05/07 10:45:24;;;;;;;4.87;1.30;;;21.20;1.00;;;;;;5021523;28;20188;-78
2023/05/07 10:48:12;;;;;;;0.97;0.70;;;21.30;99.90;;;;;;5021429;28;20219;-79
2023/05/07 10:50:42;;;;;;;2.30;0.77;;;21.40;1.00;;;;;;5020408;28;20311;-78
2023/05/07 10:53:17;;;;;;;2.47;1.10;;;21.40;91.50;;;;;;5021682;28;20523;-78
2023/05/07 10:56:03;;;;;;;1.53;1.00;;;21.50;1.00;;;;;;5019999;28;20181;-79
2023/05/07 10:58:28;;;;;;;1.53;1.07;;;21.60;22.00;;;;;;5020968;28;20208;-79
2023/05/07 11:00:57;;;;;;;3.63;1.00;;;21.70;32.70;;;;;;5020555;28;20184;-79
2023/05/07 11:03:23;;;;;;;4.30;1.10;;;21.80;1.00;;;;;;5019063;28;20295;-78
2023/05/07 11:06:12;;;;;;;2.30;1.07;;;21.70;99.90;;;;;;5019493;28;20241;-78
2023/05/07 11:08:53;;;;;;;2.20;1.17;;;21.80;99.90;;;;;;5018052;28;20232;-79
2023/05/07 11:11:21;;;;;;;1.70;1.10;;;21.80;19.60;;;;;;5021169;28;20187;-79
2023/05/07 11:13:49;;;;;;;1.83;1.13;;;21.80;99.90;;;;;;5019216;28;20244;-79
2023/05/07 11:16:26;;;;;;;1.00;0.90;;;21.80;99.90;;;;;;5021099;28;20177;-79
2023/05/07 11:18:56;;;;;;;1.93;1.07;;;21.80;1.00;;;;;;5020878;28;20199;-79
2023/05/07 11:21:39;;;;;;;2.83;0.90;;;21.80;1.00;;;;;;5017421;28;20177;-79
2023/05/07 11:24:06;;;;;;;2.77;1.37;;;21.90;1.00;;;;;;5018835;28;20181;-79
2023/05/07 11:26:44;;;;;;;0.90;0.80;;;21.70;1.00;;;;;;5019351;28;20224;-79
2023/05/07 11:29:17;;;;;;;1.50;0.87;;;21.80;99.90;;;;;;5019143;28;20192;-78
2023/05/07 11:31:42;;;;;;;0.93;0.80;;;21.80;99.90;;;;;;5019125;28;20169;-78
2023/05/07 11:34:08;;;;;;;1.27;1.03;;;21.80;99.90;;;;;;5021712;28;20188;-79
2023/05/07 11:36:34;;;;;;;1.70;0.93;;;21.80;9.10;;;;;;5020627;28;20177;-79
2023/05/07 11:39:00;;;;;;;1.40;1.17;;;21.80;1.00;;;;;;5019421;28;20248;-78
2023/05/07 11:41:36;;;;;;;1.80;0.87;;;21.80;99.90;;;;;;5022560;28;20183;-78
2023/05/07 11:44:02;;;;;;;2.20;1.17;;;21.80;1.00;;;;;;5019035;28;20203;-78
2023/05/07 11:46:28;;;;;;;2.03;1.27;;;21.70;1.00;;;;;;5017096;28;20209;-78
2023/05/07 11:48:55;;;;;;;2.30;1.10;;;21.70;99.90;;;;;;5018444;28;20214;-79
2023/05/07 11:51:26;;;;;;;1.30;1.10;;;21.50;1.00;;;;;;5018291;28;20568;-78
2023/05/07 11:53:52;;;;;;;1.53;0.80;;;21.50;99.90;;;;;;5023032;28;20188;-79
2023/05/07 11:56:18;;;;;;;3.00;1.10;;;21.50;99.90;;;;;;5049446;28;20524;-79
2023/05/07 11:58:47;;;;;;;1.33;1.10;;;21.50;99.90;;;;;;5044739;28;20577;-79
2023/05/07 12:01:13;;;;;;;3.57;1.20;;;21.50;7.50;;;;;;5057215;28;20554;-79
2023/05/07 12:03:43;;;;;;;3.03;1.30;;;21.50;99.90;;;;;;5057511;28;20192;-79
2023/05/07 12:06:10;;;;;;;1.70;1.03;;;21.40;1.00;;;;;;5056245;28;20203;-78
2023/05/07 12:08:37;;;;;;;1.97;1.20;;;21.50;1.00;;;;;;5056016;28;20192;-78
2023/05/07 12:11:06;;;;;;;1.80;1.10;;;21.50;1.00;;;;;;5044253;28;20176;-77
2023/05/07 12:13:32;;;;;;;2.37;1.03;;;21.60;1.00;;;;;;5029860;28;20218;-77
2023/05/07 12:15:57;;;;;;;1.03;0.87;;;21.50;57.60;;;;;;5030999;28;20177;-77
2023/05/07 12:18:24;;;;;;;1.37;1.03;;;21.50;99.90;;;;;;5033721;28;20199;-79
2023/05/07 12:20:50;;;;;;;5.23;1.10;;;21.50;99.90;;;;;;5040116;28;20168;-79
2023/05/07 12:23:16;;;;;;;2.40;1.23;;;21.60;1.00;;;;;;5040858;28;20276;-80
2023/05/07 12:25:46;;;;;;;1.80;1.27;;;21.50;99.90;;;;;;5040963;28;20263;-79
2023/05/07 12:28:21;;;;;;;2.90;1.43;;;21.60;1.00;;;;;;5038756;28;20200;-80
2023/05/07 12:30:48;;;;;;;2.60;1.30;;;21.50;99.90;;;;;;5025007;28;20187;-79
2023/05/07 12:33:18;;;;;;;3.23;1.00;;;21.40;99.90;;;;;;5057395;28;20195;-79
2023/05/07 12:39:13;;;;;;;2.30;1.27;;;21.30;1.00;;;;;;5037007;28;20204;-80
2023/05/07 12:41:58;;;;;;;1.90;1.30;;;21.30;99.90;;;;;;5019093;28;20181;-80
2023/05/07 12:44:34;;;;;;;2.43;1.17;;;21.20;99.90;;;;;;5020761;28;20684;-80
2023/05/07 12:47:03;;;;;;;1.73;1.30;;;21.20;99.90;;;;;;5026372;28;20303;-80
2023/05/07 12:49:28;;;;;;;2.53;1.30;;;21.20;99.90;;;;;;5058570;28;20264;-81
2023/05/07 12:51:55;;;;;;;3.60;1.40;;;21.30;1.00;;;;;;5058261;28;20175;-80